Terminal Aerodrome Forecast
Issued by NWS

Home | Current Version | Previous Version | Text Only | Print | Product List | Glossary On
Versions: 1 2 3 4 5 6 7 8 9 10 11 12 13 14 15 16 17 18 19 20 21 22 23 24 25 26 27 28 29 30 31 32 33 34 35 36
000
FTUS44 KEWX 241742
TAFSSF
TAF
KSSF 241742Z 2418/2518 13005KT P6SM BKN015
      TEMPO 2418/2420 SCT015
     FM242100 18013KT P6SM SCT030
     FM250400 14010KT 6SM BR OVC015
     FM250700 15010KT 4SM BR OVC007
     FM251700 16012KT P6SM BKN015
      TEMPO 2517/2518 4SM TSRA BR BKN015CB=

USA.gov is the U.S. government's official web portal to all federal, state and local government web resources and services.